createdAt,value
2023-02-02T00:02:20.736Z,98250.23
2023-02-02T00:07:23.768Z,98250.46
2023-02-02T00:12:27.440Z,98245.08
2023-02-02T00:17:30.505Z,98242.98
2023-02-02T00:22:34.199Z,98241.88
2023-02-02T00:27:37.151Z,98237.15
2023-02-02T00:32:40.851Z,98234.98
2023-02-02T00:37:43.891Z,98239.08
2023-02-02T00:42:50.528Z,98239.22
2023-02-02T00:47:53.505Z,98238.46
2023-02-02T00:52:58.156Z,98237.49
2023-02-02T00:58:01.237Z,98239.30
2023-02-02T01:03:04.718Z,98238.54
2023-02-02T01:08:08.574Z,98243.35
2023-02-02T01:19:27.282Z,98238.43
2023-02-02T01:24:30.360Z,98239.36
2023-02-02T01:29:33.413Z,98243.75
2023-02-02T01:34:36.334Z,98244.27
2023-02-02T01:39:39.468Z,98241.48
2023-02-02T01:45:18.717Z,98251.04
2023-02-02T01:50:26.797Z,98251.44
2023-02-02T01:55:32.591Z,98248.64
2023-02-02T02:00:36.387Z,98246.06
2023-02-02T02:05:49.620Z,98245.21
2023-02-02T02:10:52.807Z,98249.38
2023-02-02T02:16:19.440Z,98251.64
2023-02-02T02:21:52.395Z,98254.06
2023-02-02T02:27:34.333Z,98250.79
2023-02-02T02:33:04.070Z,98254.83
2023-02-02T02:38:26.171Z,98255.22
2023-02-02T02:43:40.432Z,98257.53
2023-02-02T02:48:46.024Z,98258.36
2023-02-02T02:53:48.948Z,98262.23
2023-02-02T02:59:03.701Z,98261.39
2023-02-02T03:04:12.469Z,98265.14
2023-02-02T03:09:23.263Z,98266.74
2023-02-02T03:14:26.236Z,98261.96
2023-02-02T03:19:29.095Z,98261.88
2023-02-02T03:24:31.916Z,98264.23
2023-02-02T03:29:34.750Z,98266.23
2023-02-02T03:34:37.562Z,98267.86
2023-02-02T03:39:40.426Z,98270.73
2023-02-02T03:44:43.215Z,98268.29
2023-02-02T03:49:46.073Z,98264.70
2023-02-02T03:54:48.916Z,98261.20
2023-02-02T03:59:51.767Z,98260.19
2023-02-02T04:04:54.594Z,98259.33
2023-02-02T04:09:57.401Z,98258.43
2023-02-02T04:15:00.229Z,98263.48
2023-02-02T04:20:05.655Z,98265.39
2023-02-02T04:25:08.905Z,98263.75
2023-02-02T04:30:12.205Z,98275.98
2023-02-02T04:35:15.189Z,98281.13
2023-02-02T04:40:18.500Z,98278.52
2023-02-02T04:45:21.369Z,98284.85
2023-02-02T04:50:24.720Z,98284.14
2023-02-02T04:55:27.586Z,98285.48
2023-02-02T05:00:30.571Z,98282.40
2023-02-02T05:05:33.518Z,98287.63
2023-02-02T05:10:39.727Z,98296.08
2023-02-02T05:15:43.114Z,98295.02
2023-02-02T05:20:46.057Z,98298.73
2023-02-02T05:25:53.853Z,98301.20
2023-02-02T05:30:57.581Z,98310.25
2023-02-02T05:36:00.616Z,98308.84
2023-02-02T05:41:04.022Z,98311.19
2023-02-02T05:46:07.090Z,98311.95
2023-02-02T05:51:28.144Z,98308.98
2023-02-02T05:56:31.042Z,98310.73
2023-02-02T06:01:35.619Z,98313.57
2023-02-02T06:06:39.159Z,98314.77
2023-02-02T06:11:44.709Z,98317.73
2023-02-02T06:16:47.551Z,98316.64
2023-02-02T06:21:50.513Z,98314.73
2023-02-02T06:26:53.360Z,98313.52
2023-02-02T06:31:56.342Z,98315.92
2023-02-02T06:36:59.198Z,98307.00
2023-02-02T06:42:11.884Z,98308.05
2023-02-02T06:47:23.675Z,98306.15
2023-02-02T06:52:27.062Z,98304.38
2023-02-02T06:57:29.995Z,98304.47
2023-02-02T07:02:32.901Z,98294.34
2023-02-02T07:07:35.983Z,98294.23
2023-02-02T07:12:38.993Z,98290.26
2023-02-02T07:17:41.855Z,98288.17
2023-02-02T07:22:44.646Z,98281.09
2023-02-02T07:27:47.990Z,98282.91
2023-02-02T07:32:51.221Z,98283.77
2023-02-02T07:37:56.073Z,98280.23
2023-02-02T07:43:01.029Z,98274.35
2023-02-02T07:48:04.067Z,98270.27
2023-02-02T07:53:06.944Z,98269.73
2023-02-02T07:58:11.519Z,98270.95
2023-02-02T08:03:14.395Z,98264.87
2023-02-02T08:08:17.247Z,98258.16
2023-02-02T08:13:20.924Z,98253.13
2023-02-02T08:18:23.798Z,98248.64
2023-02-02T08:23:27.963Z,98245.09
2023-02-02T08:28:30.745Z,98239.29
2023-02-02T08:33:33.661Z,98239.40
2023-02-02T08:38:36.484Z,98241.45
2023-02-02T08:43:40.278Z,98238.96
2023-02-02T08:48:43.859Z,98237.93
2023-02-02T08:53:47.603Z,98234.20
2023-02-02T08:58:54.581Z,98236.80
2023-02-02T09:04:01.563Z,98230.64
2023-02-02T09:09:09.008Z,98228.25
2023-02-02T09:14:14.115Z,98223.23
2023-02-02T09:19:17.295Z,98226.23
2023-02-02T09:24:20.172Z,98225.73
2023-02-02T09:29:23.039Z,98224.91
2023-02-02T09:34:25.869Z,98227.81
2023-02-02T09:39:28.819Z,98227.89
2023-02-02T09:44:37.764Z,98228.08
2023-02-02T09:50:18.620Z,98226.60
2023-02-02T09:55:27.470Z,98230.15
2023-02-02T10:00:51.278Z,98231.42
2023-02-02T10:06:11.202Z,98233.88
2023-02-02T10:11:46.627Z,98232.38
2023-02-02T10:16:54.661Z,98233.55
2023-02-02T10:22:27.726Z,98232.38
2023-02-02T10:27:41.634Z,98230.96
2023-02-02T10:33:10.288Z,98236.02
2023-02-02T10:38:18.899Z,98238.14
2023-02-02T10:43:46.513Z,98249.50
2023-02-02T10:48:50.728Z,98255.98
2023-02-02T10:53:57.366Z,98259.48
2023-02-02T10:59:05.883Z,98261.98
2023-02-02T11:04:29.502Z,98265.33
2023-02-02T11:09:41.059Z,98271.55
2023-02-02T11:14:52.440Z,98278.95
2023-02-02T11:19:56.214Z,98284.39
2023-02-02T11:25:08.334Z,98295.01
2023-02-02T11:30:23.483Z,98299.02
2023-02-02T11:35:29.873Z,98303.85
2023-02-02T11:40:46.328Z,98312.35
2023-02-02T11:46:02.853Z,98326.52
2023-02-02T11:51:08.134Z,98333.27
2023-02-02T11:56:23.964Z,98341.94
2023-02-02T12:01:32.892Z,98351.33
2023-02-02T12:06:38.233Z,98353.27
2023-02-02T12:12:02.702Z,98363.29
2023-02-02T12:17:50.241Z,98375.17
2023-02-02T12:23:50.571Z,98380.96
2023-02-02T12:29:11.653Z,98392.67
2023-02-02T12:34:34.142Z,98401.02
2023-02-02T12:40:03.180Z,98407.60
2023-02-02T12:45:24.507Z,98415.84
2023-02-02T12:50:39.568Z,98424.73
2023-02-02T12:55:51.323Z,98431.52
2023-02-02T13:01:25.361Z,98439.27
2023-02-02T13:07:11.691Z,98450.21
2023-02-02T13:12:18.743Z,98459.99
2023-02-02T13:17:30.498Z,98466.10
2023-02-02T13:22:44.554Z,98475.90
2023-02-02T13:27:49.763Z,98483.50
2023-02-02T13:32:57.240Z,98494.95
2023-02-02T13:38:26.905Z,98505.76
2023-02-02T13:44:06.720Z,98515.02
2023-02-02T13:49:15.136Z,98526.17
2023-02-02T13:54:44.890Z,98541.45
2023-02-02T13:59:53.689Z,98550.45
2023-02-02T14:04:59.946Z,98555.99
2023-02-02T14:10:04.460Z,98566.39
2023-02-02T14:15:10.038Z,98587.55
2023-02-02T14:20:43.278Z,98608.80
2023-02-02T14:25:46.124Z,98629.33
2023-02-02T14:31:30.008Z,98646.46
2023-02-02T14:36:37.089Z,98679.33
2023-02-02T14:42:39.413Z,98688.56
2023-02-02T14:47:45.205Z,98710.27
2023-02-02T14:53:03.993Z,98722.81
2023-02-02T14:58:07.686Z,98729.65
2023-02-02T15:03:46.197Z,98736.25
2023-02-02T15:09:27.312Z,98738.94
2023-02-02T15:14:35.933Z,98752.16
2023-02-02T15:19:45.185Z,98770.16
2023-02-02T15:24:49.504Z,98775.81
2023-02-02T15:30:02.935Z,98788.65
2023-02-02T15:35:12.138Z,98809.74
2023-02-02T15:40:20.600Z,98830.09
2023-02-02T15:45:55.339Z,98845.00
2023-02-02T15:51:05.108Z,98856.92
2023-02-02T15:56:23.202Z,98873.34
2023-02-02T16:01:30.458Z,98888.02
2023-02-02T16:06:34.828Z,98899.85
2023-02-02T16:11:42.197Z,98909.30
2023-02-02T16:16:47.505Z,98926.67
2023-02-02T16:22:04.587Z,98936.75
2023-02-02T16:27:13.503Z,98936.14
2023-02-02T16:32:40.275Z,98946.54
2023-02-02T16:37:43.114Z,98955.80
2023-02-02T16:42:45.957Z,98973.66
2023-02-02T16:47:48.827Z,98987.17
2023-02-02T16:53:02.939Z,99011.92
2023-02-02T16:58:05.805Z,99014.98
2023-02-02T17:03:12.397Z,99016.57
2023-02-02T17:08:26.795Z,99026.20
2023-02-02T17:13:32.634Z,99042.61
2023-02-02T17:18:35.568Z,99059.34
2023-02-02T17:23:39.361Z,99071.33
2023-02-02T17:28:42.400Z,99084.71
2023-02-02T17:33:45.284Z,99098.53
2023-02-02T17:38:48.139Z,99110.42
2023-02-02T17:43:50.929Z,99110.67
2023-02-02T17:48:53.849Z,99123.05
2023-02-02T17:53:59.953Z,99123.14
2023-02-02T17:59:02.789Z,99131.94
2023-02-02T18:04:06.246Z,99145.59
2023-02-02T18:09:09.873Z,99155.01
2023-02-02T18:14:13.163Z,99160.05
2023-02-02T18:19:16.042Z,99166.71
2023-02-02T18:24:18.822Z,99171.77
2023-02-02T18:29:21.683Z,99173.83
2023-02-02T18:34:25.013Z,99179.04
2023-02-02T18:39:27.892Z,99196.98
2023-02-02T18:44:31.713Z,99204.48
2023-02-02T18:49:34.526Z,99212.98
2023-02-02T18:54:37.370Z,99223.42
2023-02-02T18:59:41.335Z,99230.91
2023-02-02T19:05:03.622Z,99241.26
2023-02-02T19:10:06.629Z,99256.02
2023-02-02T19:15:13.294Z,99273.36
2023-02-02T19:20:30.805Z,99285.14
2023-02-02T19:25:33.790Z,99293.57
2023-02-02T19:30:37.404Z,99303.67
2023-02-02T19:35:40.827Z,99308.84
2023-02-02T19:40:44.590Z,99326.92
2023-02-02T19:45:47.383Z,99331.74
2023-02-02T19:50:50.354Z,99341.61
2023-02-02T19:55:53.343Z,99351.25
2023-02-02T20:00:58.013Z,99358.41
2023-02-02T20:06:04.941Z,99366.98
2023-02-02T20:11:32.914Z,99373.17
2023-02-02T20:16:44.971Z,99381.56
2023-02-02T20:21:53.333Z,99386.23
2023-02-02T20:27:03.171Z,99395.70
2023-02-02T20:32:17.648Z,99409.76
2023-02-02T20:37:31.533Z,99426.52
2023-02-02T20:42:34.396Z,99433.40
2023-02-02T20:47:37.255Z,99447.12
2023-02-02T20:52:40.480Z,99458.70
2023-02-02T20:57:43.372Z,99468.65
2023-02-02T21:02:46.207Z,99477.61
2023-02-02T21:07:54.549Z,99487.90
2023-02-02T21:12:57.441Z,99493.12
2023-02-02T21:18:00.252Z,99499.81
2023-02-02T21:23:03.069Z,99509.18
2023-02-02T21:28:06.044Z,99513.03
2023-02-02T21:33:08.905Z,99515.66
2023-02-02T21:38:15.223Z,99524.38
2023-02-02T21:43:18.834Z,99535.52
2023-02-02T21:48:29.648Z,99550.02
2023-02-02T21:53:33.894Z,99565.94
2023-02-02T21:58:40.321Z,99584.94
2023-02-02T22:03:46.742Z,99592.06
2023-02-02T22:08:51.171Z,99600.89
2023-02-02T22:13:55.758Z,99606.30
2023-02-02T22:18:58.686Z,99618.09
2023-02-02T22:24:01.482Z,99624.33
2023-02-02T22:29:17.613Z,99627.94
2023-02-02T22:34:20.453Z,99636.66
2023-02-02T22:39:23.306Z,99633.19
2023-02-02T22:44:26.083Z,99642.41
2023-02-02T22:49:28.871Z,99650.06
2023-02-02T22:54:31.680Z,99662.05
2023-02-02T22:59:35.046Z,99670.80
2023-02-02T23:04:37.954Z,99681.43
2023-02-02T23:09:40.928Z,99684.19
2023-02-02T23:14:43.699Z,99688.60
2023-02-02T23:19:46.491Z,99702.03
2023-02-02T23:24:49.447Z,99712.73
2023-02-02T23:29:52.603Z,99725.55
2023-02-02T23:34:55.445Z,99731.71
2023-02-02T23:39:58.318Z,99738.64
2023-02-02T23:45:01.196Z,99751.91
2023-02-02T23:50:07.622Z,99756.91
2023-02-02T23:55:10.961Z,99760.41
